createdAt,value
2019-06-25T00:00:27.596Z,79.97
2019-06-25T00:01:27.587Z,80.16
2019-06-25T00:02:27.574Z,80.16
2019-06-25T00:03:27.560Z,80.16
2019-06-25T00:04:27.547Z,80.26
2019-06-25T00:05:27.536Z,80.26
2019-06-25T00:06:27.519Z,80.07
2019-06-25T00:07:27.514Z,79.68
2019-06-25T00:08:27.501Z,80.16
2019-06-25T00:09:27.504Z,80.35
2019-06-25T00:10:27.472Z,80.16
2019-06-25T00:11:27.461Z,81.02
2019-06-25T00:12:27.452Z,80.83
2019-06-25T00:13:27.438Z,81.12
2019-06-25T00:14:27.429Z,80.64
2019-06-25T00:15:27.410Z,80.74
2019-06-25T00:16:27.417Z,80.74
2019-06-25T00:17:27.388Z,80.64
2019-06-25T00:18:27.398Z,80.64
2019-06-25T00:19:27.361Z,80.74
2019-06-25T00:20:27.357Z,81.02
2019-06-25T00:21:27.339Z,81.02
2019-06-25T00:22:27.328Z,81.12
2019-06-25T00:23:27.311Z,81.12
2019-06-25T00:24:27.298Z,81.02
2019-06-25T00:25:27.293Z,81.31
2019-06-25T00:26:27.277Z,81.22
2019-06-25T00:27:27.268Z,81.22
2019-06-25T00:28:27.259Z,81.89
2019-06-25T00:29:27.239Z,81.51
2019-06-25T00:30:27.229Z,81.70
2019-06-25T00:31:27.215Z,81.41
2019-06-25T00:32:27.203Z,81.46
2019-06-25T00:33:27.197Z,81.46
2019-06-25T00:34:27.183Z,81.27
2019-06-25T00:35:27.167Z,81.18
2019-06-25T00:36:27.154Z,81.66
2019-06-25T00:37:27.139Z,81.66
2019-06-25T00:38:27.129Z,81.46
2019-06-25T00:39:27.138Z,81.75
2019-06-25T00:40:27.105Z,81.75
2019-06-25T00:41:27.089Z,81.95
2019-06-25T00:42:27.076Z,82.14
2019-06-25T00:43:27.065Z,81.95
2019-06-25T00:44:27.052Z,82.14
2019-06-25T00:45:27.041Z,82.14
2019-06-25T00:46:27.041Z,82.42
2019-06-25T00:47:27.021Z,82.14
2019-06-25T00:48:27.004Z,82.52
2019-06-25T00:49:26.989Z,82.14
2019-06-25T00:50:26.980Z,82.42
2019-06-25T00:51:26.961Z,82.42
2019-06-25T00:52:26.953Z,82.52
2019-06-25T00:53:26.939Z,82.62
2019-06-25T00:54:26.929Z,82.71
2019-06-25T00:55:26.914Z,83.00
2019-06-25T00:56:26.904Z,83.00
2019-06-25T00:57:26.888Z,82.71
2019-06-25T00:58:26.876Z,82.71
2019-06-25T00:59:26.875Z,82.71
2019-06-25T01:00:26.854Z,82.42
2019-06-25T01:01:26.840Z,82.62
2019-06-25T01:02:26.828Z,82.81
2019-06-25T01:03:26.816Z,82.62
2019-06-25T01:04:26.807Z,82.52
2019-06-25T01:05:26.790Z,82.90
2019-06-25T01:06:26.778Z,83.00
2019-06-25T01:07:26.770Z,83.00
2019-06-25T01:08:26.753Z,83.00
2019-06-25T01:09:26.744Z,82.90
2019-06-25T01:10:26.737Z,82.81
2019-06-25T01:11:26.714Z,83.00
2019-06-25T01:12:26.716Z,82.81
2019-06-25T01:13:26.689Z,82.71
2019-06-25T01:14:26.681Z,83.58
2019-06-25T01:15:26.675Z,83.38
2019-06-25T01:16:26.652Z,83.19
2019-06-25T01:17:26.642Z,83.38
2019-06-25T01:18:26.633Z,83.67
2019-06-25T01:19:26.614Z,83.48
2019-06-25T01:20:26.600Z,83.09
2019-06-25T01:21:26.589Z,83.38
2019-06-25T01:22:26.577Z,83.00
2019-06-25T01:23:26.570Z,83.76
2019-06-25T01:24:26.568Z,83.48
2019-06-25T01:25:26.552Z,83.48
2019-06-25T01:26:26.527Z,83.58
2019-06-25T01:27:26.514Z,83.29
2019-06-25T01:28:26.502Z,83.86
2019-06-25T01:29:26.485Z,83.86
2019-06-25T01:30:29.880Z,83.86
2019-06-25T01:31:26.461Z,83.76
2019-06-25T01:32:26.454Z,83.76
2019-06-25T01:33:26.445Z,84.15
2019-06-25T01:34:26.431Z,83.95
2019-06-25T01:35:26.425Z,84.05
2019-06-25T01:36:26.401Z,84.15
2019-06-25T01:37:26.387Z,84.20
2019-06-25T01:38:26.384Z,83.95
2019-06-25T01:39:26.365Z,84.05
2019-06-25T01:40:26.352Z,83.86
2019-06-25T01:41:26.358Z,84.15
2019-06-25T01:42:26.322Z,84.05
2019-06-25T01:43:26.310Z,84.72
2019-06-25T01:44:26.349Z,84.63
2019-06-25T01:45:26.302Z,84.63
2019-06-25T01:46:26.274Z,84.63
2019-06-25T01:47:26.264Z,84.63
2019-06-25T01:48:26.249Z,84.91
2019-06-25T01:49:26.236Z,84.63
2019-06-25T01:50:26.282Z,84.91
2019-06-25T01:51:26.219Z,84.82
2019-06-25T01:52:26.199Z,84.72
2019-06-25T01:53:26.188Z,84.44
2019-06-25T01:54:26.173Z,84.72
2019-06-25T01:55:26.162Z,84.44
2019-06-25T01:56:26.150Z,84.72
2019-06-25T01:57:26.142Z,84.72
2019-06-25T01:58:26.124Z,84.91
2019-06-25T01:59:26.109Z,84.82
2019-06-25T02:00:26.104Z,84.91
2019-06-25T02:01:26.086Z,85.11
2019-06-25T02:02:26.071Z,85.01
2019-06-25T02:03:26.058Z,85.01
2019-06-25T02:04:26.048Z,85.01
2019-06-25T02:05:26.032Z,84.72
2019-06-25T02:06:26.018Z,84.82
2019-06-25T02:07:26.009Z,85.39
2019-06-25T02:08:25.996Z,85.06
2019-06-25T02:09:25.984Z,85.25
2019-06-25T02:10:25.982Z,85.30
2019-06-25T02:11:25.957Z,85.25
2019-06-25T02:12:25.944Z,85.49
2019-06-25T02:13:25.932Z,85.11
2019-06-25T02:14:25.925Z,85.01
2019-06-25T02:15:25.906Z,85.68
2019-06-25T02:16:25.892Z,85.58
2019-06-25T02:17:25.885Z,85.64
2019-06-25T02:18:29.230Z,85.58
2019-06-25T02:19:25.862Z,85.35
2019-06-25T02:20:25.859Z,85.45
2019-06-25T02:21:25.838Z,85.35
2019-06-25T02:22:25.817Z,85.16
2019-06-25T02:23:25.805Z,85.35
2019-06-25T02:24:25.791Z,85.58
2019-06-25T02:25:25.776Z,85.39
2019-06-25T02:26:25.770Z,85.39
2019-06-25T02:27:25.755Z,85.30
2019-06-25T02:28:25.738Z,85.25
2019-06-25T02:29:25.729Z,85.30
2019-06-25T02:30:25.730Z,85.30
2019-06-25T02:31:25.713Z,85.49
2019-06-25T02:32:25.688Z,85.68
2019-06-25T02:33:25.679Z,85.78
2019-06-25T02:34:25.672Z,85.78
2019-06-25T02:35:25.650Z,85.83
2019-06-25T02:36:25.665Z,85.78
2019-06-25T02:37:25.631Z,86.02
2019-06-25T02:38:25.635Z,85.83
2019-06-25T02:39:25.601Z,85.83
2019-06-25T02:40:25.590Z,85.97
2019-06-25T02:41:25.578Z,85.64
2019-06-25T02:42:25.564Z,85.93
2019-06-25T02:43:25.553Z,85.64
2019-06-25T02:44:25.639Z,85.64
2019-06-25T02:45:25.524Z,85.64
2019-06-25T02:46:25.512Z,85.74
2019-06-25T02:47:25.507Z,86.12
2019-06-25T02:48:25.484Z,86.12
2019-06-25T02:49:25.538Z,86.69
2019-06-25T02:50:25.464Z,85.54
2019-06-25T02:51:25.477Z,86.50
2019-06-25T02:52:25.437Z,85.74
2019-06-25T02:53:25.423Z,85.93
2019-06-25T02:54:25.421Z,86.12
2019-06-25T02:55:25.402Z,86.41
2019-06-25T02:56:25.389Z,86.31
2019-06-25T02:57:25.381Z,86.50
2019-06-25T02:58:25.358Z,86.50
2019-06-25T02:59:25.384Z,86.31
2019-06-25T03:00:25.332Z,86.41
2019-06-25T03:01:29.341Z,86.21
2019-06-25T03:02:25.308Z,86.60
2019-06-25T03:03:25.293Z,86.02
2019-06-25T03:04:25.282Z,86.21
2019-06-25T03:05:25.273Z,86.31
2019-06-25T03:06:25.257Z,86.21
2019-06-25T03:07:25.250Z,86.41
2019-06-25T03:08:25.226Z,86.31
2019-06-25T03:09:25.277Z,86.88
2019-06-25T03:10:25.206Z,86.50
2019-06-25T03:11:25.194Z,86.69
2019-06-25T03:12:25.198Z,86.21
2019-06-25T03:13:25.160Z,86.21
2019-06-25T03:14:25.157Z,86.45
2019-06-25T03:15:25.141Z,86.45
2019-06-25T03:16:25.128Z,86.54
2019-06-25T03:17:25.116Z,86.54
2019-06-25T03:18:25.106Z,86.41
2019-06-25T03:19:25.091Z,86.41
2019-06-25T03:20:25.081Z,86.31
2019-06-25T03:21:25.062Z,86.64
2019-06-25T03:22:25.062Z,86.41
2019-06-25T03:23:25.038Z,86.69
2019-06-25T03:24:25.087Z,86.79
2019-06-25T03:25:25.014Z,86.60
2019-06-25T03:26:25.002Z,86.88
2019-06-25T03:27:24.999Z,86.31
2019-06-25T03:28:24.980Z,86.88
2019-06-25T03:29:24.969Z,86.31
2019-06-25T03:30:24.960Z,86.50
2019-06-25T03:31:24.938Z,86.60
2019-06-25T03:32:24.924Z,86.60
2019-06-25T03:33:24.914Z,86.69
2019-06-25T03:34:24.903Z,86.69
2019-06-25T03:35:24.911Z,86.79
2019-06-25T03:36:24.879Z,86.60
2019-06-25T03:37:24.866Z,86.69
2019-06-25T03:38:24.855Z,86.79
2019-06-25T03:39:24.832Z,87.08
2019-06-25T03:40:24.821Z,87.17
2019-06-25T03:41:24.827Z,87.27
2019-06-25T03:42:24.798Z,86.98
2019-06-25T03:43:24.789Z,87.55
2019-06-25T03:44:24.772Z,86.98
2019-06-25T03:45:24.751Z,87.27
2019-06-25T03:46:24.747Z,87.46
2019-06-25T03:47:24.730Z,87.08
2019-06-25T03:48:24.737Z,87.08
2019-06-25T03:49:24.711Z,87.08
2019-06-25T03:50:24.711Z,87.55
2019-06-25T03:51:24.681Z,87.46
2019-06-25T03:52:24.666Z,87.37
2019-06-25T03:53:24.665Z,87.27
2019-06-25T03:54:24.645Z,87.41
2019-06-25T03:55:24.631Z,87.50
2019-06-25T03:56:24.617Z,87.41
2019-06-25T03:57:24.638Z,87.70
2019-06-25T03:58:24.592Z,87.31
2019-06-25T03:59:24.626Z,86.83
2019-06-25T04:00:24.640Z,86.83
2019-06-25T04:01:24.580Z,87.60
2019-06-25T04:02:24.539Z,86.83
2019-06-25T04:03:24.583Z,87.60
2019-06-25T04:04:24.637Z,87.60
2019-06-25T04:05:24.502Z,87.50
2019-06-25T04:06:24.492Z,87.31
2019-06-25T04:07:24.478Z,87.41
2019-06-25T04:08:24.463Z,87.31
2019-06-25T04:09:24.456Z,87.41
2019-06-25T04:10:24.442Z,87.50
2019-06-25T04:11:24.427Z,87.31
2019-06-25T04:12:24.412Z,87.60
2019-06-25T04:13:24.400Z,87.31
2019-06-25T04:14:24.443Z,87.41
2019-06-25T04:15:24.371Z,87.60
2019-06-25T04:16:24.377Z,87.31
2019-06-25T04:17:24.350Z,87.55
2019-06-25T04:18:24.340Z,87.35
2019-06-25T04:19:24.354Z,87.35
2019-06-25T04:20:24.312Z,87.64
2019-06-25T04:21:24.303Z,87.35
2019-06-25T04:22:24.291Z,87.55
2019-06-25T04:23:24.274Z,87.64
2019-06-25T04:24:24.264Z,86.88
2019-06-25T04:25:27.099Z,87.07
2019-06-25T04:26:24.313Z,86.97
2019-06-25T04:27:24.237Z,87.35
2019-06-25T04:28:24.214Z,87.64
2019-06-25T04:29:24.200Z,87.55
2019-06-25T04:30:24.188Z,87.68
2019-06-25T04:31:24.185Z,87.59
2019-06-25T04:32:33.348Z,87.49
2019-06-25T04:33:24.151Z,87.59
2019-06-25T04:34:24.140Z,87.49
2019-06-25T04:35:24.131Z,87.11
2019-06-25T04:36:24.118Z,87.49
2019-06-25T04:37:24.103Z,87.49
2019-06-25T04:38:24.094Z,87.59
2019-06-25T04:39:24.076Z,87.59
2019-06-25T04:40:24.076Z,87.59
2019-06-25T04:41:24.054Z,87.49
2019-06-25T04:42:24.043Z,87.35
2019-06-25T04:43:24.029Z,87.63
2019-06-25T04:44:24.023Z,87.15
2019-06-25T04:45:24.005Z,87.15
2019-06-25T04:46:23.999Z,87.49
2019-06-25T04:47:23.998Z,86.91
2019-06-25T04:48:26.885Z,86.62
2019-06-25T04:49:23.959Z,86.43
2019-06-25T04:50:23.945Z,86.33
2019-06-25T04:51:23.933Z,86.47
2019-06-25T04:52:23.923Z,85.99
2019-06-25T04:53:23.914Z,86.09
2019-06-25T04:54:23.901Z,86.47
2019-06-25T04:55:23.888Z,86.09
2019-06-25T04:56:23.876Z,86.04
2019-06-25T04:57:23.867Z,85.75
2019-06-25T04:58:23.855Z,85.84
2019-06-25T04:59:23.834Z,85.78
2019-06-25T05:00:23.832Z,85.21
2019-06-25T05:01:26.737Z,85.02
2019-06-25T05:02:23.806Z,84.92
2019-06-25T05:03:23.801Z,84.34
2019-06-25T05:04:23.899Z,84.16
2019-06-25T05:05:23.773Z,84.19
2019-06-25T05:06:23.764Z,83.72
2019-06-25T05:07:23.769Z,83.62
2019-06-25T05:08:23.741Z,83.72
2019-06-25T05:09:23.742Z,83.81
2019-06-25T05:10:23.728Z,83.23
2019-06-25T05:11:23.707Z,83.42
2019-06-25T05:12:23.697Z,83.23
2019-06-25T05:13:23.688Z,82.79
2019-06-25T05:14:24.944Z,82.89
2019-06-25T05:15:23.666Z,82.79
2019-06-25T05:16:23.678Z,83.08
2019-06-25T05:17:23.641Z,82.50
2019-06-25T05:18:23.633Z,82.12
2019-06-25T05:19:23.622Z,82.21
2019-06-25T05:20:23.619Z,82.21
2019-06-25T05:21:23.668Z,81.93
2019-06-25T05:22:23.631Z,81.83
2019-06-25T05:23:23.586Z,81.54
2019-06-25T05:24:23.572Z,81.83
2019-06-25T05:25:23.566Z,81.83
2019-06-25T05:26:23.557Z,81.68
2019-06-25T05:27:23.539Z,81.58
2019-06-25T05:28:23.533Z,81.48
2019-06-25T05:29:23.519Z,81.01
2019-06-25T05:30:23.510Z,80.91
2019-06-25T05:31:25.912Z,81.29
2019-06-25T05:32:23.489Z,80.62
2019-06-25T05:33:23.480Z,80.23
2019-06-25T05:34:23.474Z,80.46
2019-06-25T05:35:24.280Z,80.37
2019-06-25T05:36:23.454Z,80.27
2019-06-25T05:37:23.446Z,80.18
2019-06-25T05:38:23.432Z,80.27
2019-06-25T05:39:23.441Z,80.27
2019-06-25T05:40:23.410Z,80.37
2019-06-25T05:41:23.400Z,79.98
2019-06-25T05:42:23.414Z,80.08
2019-06-25T05:43:23.375Z,79.54
2019-06-25T05:44:23.374Z,79.54
2019-06-25T05:45:23.362Z,79.74
2019-06-25T05:46:23.352Z,79.35
2019-06-25T05:47:23.348Z,79.83
2019-06-25T05:48:23.333Z,79.06
2019-06-25T05:49:23.327Z,79.16
2019-06-25T05:50:23.317Z,79.16
2019-06-25T05:51:23.309Z,78.77
2019-06-25T05:52:23.298Z,78.96
2019-06-25T05:53:23.296Z,78.77
2019-06-25T05:54:23.279Z,78.38
2019-06-25T05:55:23.268Z,78.33
2019-06-25T05:56:23.265Z,78.42
2019-06-25T05:57:23.252Z,78.33
2019-06-25T05:58:23.245Z,78.23
2019-06-25T05:59:23.238Z,77.65
2019-06-25T06:00:23.231Z,77.40
2019-06-25T06:01:23.221Z,77.50
2019-06-25T06:02:23.207Z,77.30
2019-06-25T06:03:23.200Z,77.21
2019-06-25T06:04:23.201Z,77.21
2019-06-25T06:05:23.185Z,76.72
2019-06-25T06:06:23.169Z,76.43
2019-06-25T06:07:23.160Z,75.79
2019-06-25T06:08:23.153Z,75.99
2019-06-25T06:09:23.149Z,75.99
2019-06-25T06:10:23.141Z,75.89
2019-06-25T06:11:26.504Z,75.60
2019-06-25T06:12:23.129Z,75.22
2019-06-25T06:13:23.114Z,75.41
2019-06-25T06:14:23.110Z,75.12
2019-06-25T06:15:23.092Z,75.41
2019-06-25T06:16:23.116Z,75.12
2019-06-25T06:17:23.084Z,75.06
2019-06-25T06:18:23.068Z,75.26
2019-06-25T06:19:23.066Z,75.54
2019-06-25T06:20:23.055Z,74.58
2019-06-25T06:21:23.046Z,74.68
2019-06-25T06:22:23.054Z,74.87
2019-06-25T06:23:23.030Z,75.16
2019-06-25T06:24:23.026Z,74.48
2019-06-25T06:25:23.013Z,73.90
2019-06-25T06:26:23.013Z,74.10
2019-06-25T06:27:22.997Z,73.71
2019-06-25T06:28:22.990Z,73.42
2019-06-25T06:29:22.984Z,73.80
2019-06-25T06:30:22.980Z,73.80
2019-06-25T06:31:23.007Z,73.71
2019-06-25T06:32:22.978Z,73.32
2019-06-25T06:33:35.636Z,73.52
2019-06-25T06:34:22.941Z,73.42
2019-06-25T06:35:22.937Z,73.03
2019-06-25T06:36:22.927Z,73.03
2019-06-25T06:37:22.920Z,73.07
2019-06-25T06:38:22.913Z,72.58
2019-06-25T06:39:22.907Z,72.78
2019-06-25T06:40:22.893Z,72.68
2019-06-25T06:41:22.908Z,72.39
2019-06-25T06:42:22.888Z,72.00
2019-06-25T06:43:22.871Z,71.91
2019-06-25T06:44:22.865Z,71.62
2019-06-25T06:45:22.856Z,71.66
2019-06-25T06:46:22.850Z,71.46
2019-06-25T06:47:22.881Z,71.56
2019-06-25T06:48:22.835Z,70.98
2019-06-25T06:49:22.826Z,71.36
2019-06-25T06:50:22.820Z,70.78
2019-06-25T06:51:22.811Z,70.88
2019-06-25T06:52:22.833Z,71.01
2019-06-25T06:53:22.792Z,70.92
2019-06-25T06:54:22.788Z,70.34
2019-06-25T06:55:22.781Z,70.62
2019-06-25T06:56:22.775Z,69.95
2019-06-25T06:57:22.768Z,70.14
2019-06-25T06:58:22.759Z,70.08
2019-06-25T06:59:22.749Z,69.98
2019-06-25T07:00:22.749Z,69.69
2019-06-25T07:01:22.744Z,69.59
2019-06-25T07:02:22.749Z,69.31
2019-06-25T07:03:22.722Z,69.59
2019-06-25T07:04:22.721Z,69.11
2019-06-25T07:05:22.708Z,69.31
2019-06-25T07:06:22.715Z,68.66
2019-06-25T07:07:22.701Z,68.82
2019-06-25T07:08:22.693Z,68.56
2019-06-25T07:09:22.684Z,68.37
2019-06-25T07:10:22.677Z,68.47
2019-06-25T07:11:22.672Z,68.08
2019-06-25T07:12:22.673Z,68.08
2019-06-25T07:13:22.657Z,68.18
2019-06-25T07:14:22.658Z,68.12
2019-06-25T07:15:22.642Z,67.53
2019-06-25T07:16:22.639Z,67.63
2019-06-25T07:17:22.639Z,67.63
2019-06-25T07:18:22.689Z,67.34
2019-06-25T07:19:22.647Z,67.14
2019-06-25T07:20:32.883Z,67.24
2019-06-25T07:21:22.609Z,66.95
2019-06-25T07:22:22.604Z,66.75
2019-06-25T07:23:22.596Z,66.75
2019-06-25T07:24:22.593Z,66.60
2019-06-25T07:25:22.592Z,66.89
2019-06-25T07:26:22.624Z,65.92
2019-06-25T07:27:22.576Z,66.50
2019-06-25T07:28:22.571Z,66.11
2019-06-25T07:29:22.562Z,65.82
2019-06-25T07:30:22.561Z,65.72
2019-06-25T07:31:22.551Z,65.34
2019-06-25T07:32:22.545Z,65.08
2019-06-25T07:33:22.545Z,64.78
2019-06-25T07:34:22.553Z,64.88
2019-06-25T07:35:22.624Z,64.50
2019-06-25T07:36:22.529Z,64.20
2019-06-25T07:37:22.519Z,64.33
2019-06-25T07:38:22.517Z,63.56
2019-06-25T07:39:22.515Z,63.75
2019-06-25T07:40:22.502Z,63.65
2019-06-25T07:41:22.495Z,63.56
2019-06-25T07:42:22.493Z,63.36
2019-06-25T07:43:22.493Z,63.46
2019-06-25T07:44:22.482Z,63.36
2019-06-25T07:45:22.481Z,63.20
2019-06-25T07:46:22.484Z,62.91
2019-06-25T07:47:22.466Z,62.91
2019-06-25T07:48:22.463Z,62.42
2019-06-25T07:49:22.462Z,62.42
2019-06-25T07:50:22.455Z,61.97
2019-06-25T07:51:22.448Z,61.68
2019-06-25T07:52:22.444Z,61.58
2019-06-25T07:53:22.453Z,61.51
2019-06-25T07:54:22.434Z,61.32
2019-06-25T07:55:22.433Z,61.02
2019-06-25T07:56:35.558Z,60.83
2019-06-25T07:57:22.419Z,60.25
2019-06-25T07:58:22.930Z,60.57
2019-06-25T07:59:22.494Z,60.18
2019-06-25T08:00:22.413Z,60.38
2019-06-25T08:01:22.407Z,60.02
2019-06-25T08:02:22.402Z,60.02
2019-06-25T08:03:22.394Z,59.63
2019-06-25T08:04:25.713Z,59.33
2019-06-25T08:05:22.386Z,59.53
2019-06-25T08:06:22.406Z,59.07
2019-06-25T08:07:22.380Z,58.51
2019-06-25T08:08:22.377Z,58.51
2019-06-25T08:09:22.373Z,58.13
2019-06-25T08:10:22.367Z,58.35
2019-06-25T08:11:22.363Z,57.76
2019-06-25T08:12:22.361Z,57.70
2019-06-25T08:13:22.358Z,57.50
2019-06-25T08:14:22.363Z,56.92
2019-06-25T08:15:22.434Z,56.65
2019-06-25T08:16:22.348Z,56.26
2019-06-25T08:17:22.368Z,56.00
2019-06-25T08:18:22.345Z,55.51
2019-06-25T08:19:22.343Z,55.41
2019-06-25T08:20:22.349Z,55.12
2019-06-25T08:21:22.341Z,54.56
2019-06-25T08:22:22.343Z,54.75
2019-06-25T08:23:22.334Z,54.46
2019-06-25T08:24:22.329Z,54.00
2019-06-25T08:25:22.324Z,53.42
2019-06-25T08:26:22.330Z,53.13
2019-06-25T08:27:22.324Z,53.22
2019-06-25T08:28:22.322Z,53.15
2019-06-25T08:29:22.318Z,52.95
2019-06-25T08:30:22.312Z,52.88
2019-06-25T08:31:22.357Z,52.39
2019-06-25T08:32:25.430Z,51.93
2019-06-25T08:33:22.317Z,51.86
2019-06-25T08:34:22.311Z,51.27
2019-06-25T08:35:22.309Z,51.20
2019-06-25T08:36:22.313Z,51.00
2019-06-25T08:37:22.304Z,50.42
2019-06-25T08:38:22.346Z,50.42
2019-06-25T08:39:22.301Z,49.85
2019-06-25T08:40:22.303Z,49.85
2019-06-25T08:41:22.302Z,49.26
2019-06-25T08:42:22.300Z,48.99
2019-06-25T08:43:22.320Z,49.09
2019-06-25T08:44:22.296Z,48.50
2019-06-25T08:45:22.299Z,48.60
2019-06-25T08:46:22.409Z,48.41
2019-06-25T08:47:22.301Z,48.52
2019-06-25T08:48:22.295Z,47.84
2019-06-25T08:49:22.300Z,48.03
2019-06-25T08:50:22.293Z,47.84
2019-06-25T08:51:22.298Z,47.17
2019-06-25T08:52:22.296Z,47.37
2019-06-25T08:53:22.291Z,47.17
2019-06-25T08:54:22.291Z,47.37
2019-06-25T08:55:22.291Z,46.91
2019-06-25T08:56:22.291Z,47.30
2019-06-25T08:57:22.290Z,46.41
2019-06-25T08:58:22.291Z,46.93
2019-06-25T08:59:22.306Z,46.53
2019-06-25T09:00:22.407Z,46.17
2019-06-25T09:01:22.284Z,45.77
2019-06-25T09:02:22.287Z,45.87
2019-06-25T09:03:22.286Z,45.28
2019-06-25T09:04:22.288Z,45.67
2019-06-25T09:05:22.288Z,45.38
2019-06-25T09:06:22.286Z,45.09
2019-06-25T09:07:22.290Z,44.69
2019-06-25T09:08:22.289Z,44.71
2019-06-25T09:09:22.287Z,44.22
2019-06-25T09:10:22.286Z,44.34
2019-06-25T09:11:22.286Z,43.95
2019-06-25T09:12:22.283Z,44.05
2019-06-25T09:13:22.286Z,43.85
2019-06-25T09:14:22.289Z,43.95
2019-06-25T09:15:22.287Z,43.95
2019-06-25T09:16:22.294Z,43.48
2019-06-25T09:17:22.293Z,43.48
2019-06-25T09:18:22.286Z,43.48
2019-06-25T09:19:22.289Z,43.48
2019-06-25T09:20:22.335Z,43.18
2019-06-25T09:21:22.291Z,42.69
2019-06-25T09:22:22.288Z,43.01
2019-06-25T09:23:22.288Z,42.52
2019-06-25T09:24:22.683Z,42.14
2019-06-25T09:25:22.301Z,42.44
2019-06-25T09:26:22.288Z,42.14
2019-06-25T09:27:22.297Z,41.85
2019-06-25T09:28:23.057Z,41.85
2019-06-25T09:29:22.290Z,41.67
2019-06-25T09:30:22.296Z,41.27
2019-06-25T09:31:22.289Z,40.98
2019-06-25T09:32:22.293Z,41.00
2019-06-25T09:33:22.297Z,41.00
2019-06-25T09:34:22.295Z,40.53
2019-06-25T09:35:22.293Z,40.64
2019-06-25T09:36:22.311Z,39.58
2019-06-25T09:37:22.296Z,39.58
2019-06-25T09:38:22.295Z,39.58
2019-06-25T09:39:22.296Z,38.98
2019-06-25T09:40:22.293Z,39.46
2019-06-25T09:41:22.343Z,39.46
2019-06-25T09:42:22.440Z,39.06
2019-06-25T09:43:22.297Z,39.18
2019-06-25T09:44:22.299Z,38.37
2019-06-25T09:45:22.300Z,38.49
2019-06-25T09:46:22.300Z,38.61
2019-06-25T09:47:22.298Z,38.41
2019-06-25T09:48:22.344Z,38.43
2019-06-25T09:49:22.305Z,37.54
2019-06-25T09:50:22.306Z,37.74
2019-06-25T09:51:22.302Z,36.95
2019-06-25T09:52:22.310Z,37.45
2019-06-25T09:53:22.410Z,37.24
2019-06-25T09:54:22.308Z,37.15
2019-06-25T09:55:22.313Z,37.24
2019-06-25T09:56:22.317Z,37.05
2019-06-25T09:57:22.316Z,36.93
2019-06-25T09:58:22.326Z,37.03
2019-06-25T09:59:22.320Z,37.13
2019-06-25T10:00:22.320Z,37.23
2019-06-25T10:01:26.288Z,37.43
2019-06-25T10:02:22.325Z,37.13
2019-06-25T10:03:22.330Z,37.03
2019-06-25T10:04:22.333Z,36.73
2019-06-25T10:05:31.604Z,36.73
2019-06-25T10:06:22.326Z,36.93
2019-06-25T10:07:22.345Z,36.54
2019-06-25T10:08:22.345Z,36.65
2019-06-25T10:09:22.335Z,36.63
2019-06-25T10:10:22.331Z,36.73
2019-06-25T10:11:22.353Z,36.82
2019-06-25T10:12:22.334Z,36.91
2019-06-25T10:13:22.341Z,36.91
2019-06-25T10:14:22.419Z,36.91
2019-06-25T10:15:22.340Z,36.93
2019-06-25T10:16:22.341Z,36.63
2019-06-25T10:17:22.342Z,36.63
2019-06-25T10:18:22.516Z,36.73
2019-06-25T10:19:22.342Z,36.85
2019-06-25T10:20:22.347Z,35.96
2019-06-25T10:21:25.557Z,35.96
2019-06-25T10:22:22.348Z,36.16
2019-06-25T10:23:22.347Z,35.57
2019-06-25T10:24:22.376Z,35.88
2019-06-25T10:25:22.352Z,35.60
2019-06-25T10:26:22.353Z,35.60
2019-06-25T10:27:22.364Z,35.11
2019-06-25T10:28:30.140Z,35.30
2019-06-25T10:29:22.355Z,35.21
2019-06-25T10:30:22.369Z,35.30
2019-06-25T10:31:22.370Z,35.30
2019-06-25T10:32:22.374Z,35.30
2019-06-25T10:33:22.593Z,35.32
2019-06-25T10:34:22.369Z,35.32
2019-06-25T10:35:22.371Z,35.14
2019-06-25T10:36:22.366Z,34.94
2019-06-25T10:37:22.407Z,35.04
2019-06-25T10:38:22.389Z,34.94
2019-06-25T10:39:23.235Z,35.35
2019-06-25T10:40:22.405Z,35.16
2019-06-25T10:41:22.373Z,34.36
2019-06-25T10:42:22.429Z,33.89
2019-06-25T10:43:22.377Z,33.59
2019-06-25T10:44:22.387Z,33.69
2019-06-25T10:45:22.414Z,33.90
2019-06-25T10:46:22.419Z,33.39
2019-06-25T10:47:22.464Z,33.49
2019-06-25T10:48:26.464Z,33.69
2019-06-25T10:49:22.408Z,33.59
2019-06-25T10:50:22.406Z,33.59
2019-06-25T10:51:22.596Z,33.69
2019-06-25T10:52:22.425Z,33.49
2019-06-25T10:53:22.406Z,33.59
2019-06-25T10:54:22.409Z,33.57
2019-06-25T10:55:22.413Z,33.77
2019-06-25T10:56:26.369Z,33.77
2019-06-25T10:57:22.411Z,33.67
2019-06-25T10:58:22.421Z,33.75
2019-06-25T10:59:22.437Z,34.05
2019-06-25T11:00:22.424Z,33.85
2019-06-25T11:01:22.423Z,33.95
2019-06-25T11:02:22.611Z,33.95
2019-06-25T11:03:22.429Z,33.95
2019-06-25T11:04:22.439Z,33.85
2019-06-25T11:05:22.435Z,33.67
2019-06-25T11:06:22.436Z,33.67
2019-06-25T11:07:22.438Z,33.57
2019-06-25T11:08:22.441Z,33.67
2019-06-25T11:09:22.462Z,33.78
2019-06-25T11:10:22.449Z,33.59
2019-06-25T11:11:22.448Z,33.69
2019-06-25T11:12:22.449Z,33.07
2019-06-25T11:13:22.479Z,33.37
2019-06-25T11:14:22.452Z,33.37
2019-06-25T11:15:22.462Z,33.07
2019-06-25T11:16:22.455Z,32.98
2019-06-25T11:17:22.483Z,33.07
2019-06-25T11:18:22.462Z,32.79
2019-06-25T11:19:22.468Z,32.70
2019-06-25T11:20:22.500Z,32.60
2019-06-25T11:21:22.470Z,32.50
2019-06-25T11:22:24.237Z,32.30
2019-06-25T11:23:22.473Z,33.00
2019-06-25T11:24:22.724Z,32.50
2019-06-25T11:25:22.483Z,32.79
2019-06-25T11:26:23.807Z,32.88
2019-06-25T11:27:22.489Z,32.79
2019-06-25T11:28:23.228Z,32.71
2019-06-25T11:29:22.558Z,32.73
2019-06-25T11:30:22.495Z,32.75
2019-06-25T11:31:22.497Z,32.36
2019-06-25T11:32:22.497Z,31.98
2019-06-25T11:33:22.504Z,31.78
2019-06-25T11:34:22.505Z,31.68
2019-06-25T11:35:22.509Z,31.48
2019-06-25T11:36:22.513Z,31.70
2019-06-25T11:37:22.516Z,31.50
2019-06-25T11:38:22.523Z,31.51
2019-06-25T11:39:22.520Z,31.30
2019-06-25T11:40:22.526Z,31.32
2019-06-25T11:41:22.554Z,31.32
2019-06-25T11:42:22.543Z,31.12
2019-06-25T11:43:22.538Z,30.82
2019-06-25T11:44:22.539Z,30.90
2019-06-25T11:45:22.545Z,31.30
2019-06-25T11:46:22.571Z,31.40
2019-06-25T11:47:22.563Z,31.29
2019-06-25T11:48:22.559Z,31.18
2019-06-25T11:49:22.558Z,31.47
2019-06-25T11:50:22.564Z,31.45
2019-06-25T11:51:22.567Z,31.65
2019-06-25T11:52:22.570Z,31.75
2019-06-25T11:53:22.574Z,32.03
2019-06-25T11:54:22.587Z,32.14
2019-06-25T11:55:22.581Z,31.95
2019-06-25T11:56:22.591Z,32.03
2019-06-25T11:57:22.616Z,31.93
2019-06-25T11:58:22.601Z,31.95
2019-06-25T11:59:22.600Z,31.93
2019-06-25T12:00:22.601Z,31.96
2019-06-25T12:01:22.607Z,31.68
2019-06-25T12:02:22.608Z,31.38
2019-06-25T12:03:22.611Z,31.20
2019-06-25T12:04:22.662Z,30.82
2019-06-25T12:05:22.626Z,30.73
2019-06-25T12:06:33.118Z,30.65
2019-06-25T12:07:22.634Z,30.07
2019-06-25T12:08:22.639Z,29.58
2019-06-25T12:09:22.650Z,29.58
2019-06-25T12:10:22.666Z,29.48
2019-06-25T12:11:22.656Z,29.58
2019-06-25T12:12:22.652Z,29.57
2019-06-25T12:13:22.666Z,29.75
2019-06-25T12:14:22.682Z,30.05
2019-06-25T12:15:22.677Z,29.74
2019-06-25T12:16:22.682Z,30.22
2019-06-25T12:17:22.687Z,30.32
2019-06-25T12:18:22.695Z,30.32
2019-06-25T12:19:22.699Z,30.42
2019-06-25T12:20:22.712Z,30.42
2019-06-25T12:21:22.708Z,29.94
2019-06-25T12:22:22.713Z,30.43
2019-06-25T12:23:22.738Z,30.04
2019-06-25T12:24:22.730Z,29.94
2019-06-25T12:25:22.741Z,29.94
2019-06-25T12:26:22.749Z,30.24
2019-06-25T12:27:22.754Z,30.24
2019-06-25T12:28:22.750Z,29.95
2019-06-25T12:29:22.759Z,30.15
2019-06-25T12:30:22.772Z,29.67
2019-06-25T12:31:22.774Z,29.37
2019-06-25T12:32:22.777Z,29.57
2019-06-25T12:33:22.786Z,29.68
2019-06-25T12:34:22.792Z,29.18
2019-06-25T12:35:22.795Z,29.30
2019-06-25T12:36:22.800Z,28.88
2019-06-25T12:37:22.810Z,29.18
2019-06-25T12:38:22.833Z,29.68
2019-06-25T12:39:22.841Z,29.20
2019-06-25T12:40:22.828Z,29.18
2019-06-25T12:41:22.856Z,29.67
2019-06-25T12:42:22.851Z,29.47
2019-06-25T12:43:22.852Z,29.07
2019-06-25T12:44:22.855Z,29.57
2019-06-25T12:45:22.867Z,29.67
2019-06-25T12:46:22.874Z,29.67
2019-06-25T12:47:22.872Z,29.57
2019-06-25T12:48:22.921Z,29.57
2019-06-25T12:49:22.909Z,29.78
2019-06-25T12:50:22.908Z,29.48
2019-06-25T12:51:22.918Z,29.97
2019-06-25T12:52:22.916Z,29.57